createdAt,value
2022-09-29T00:00:38.073Z,94718.59
2022-09-29T00:03:06.660Z,94717.31
2022-09-29T00:05:36.174Z,94714.69
2022-09-29T00:08:04.337Z,94719.13
2022-09-29T00:10:32.344Z,94717.69
2022-09-29T00:13:03.701Z,94713.97
2022-09-29T00:15:31.720Z,94713.97
2022-09-29T00:18:13.300Z,94719.06
2022-09-29T00:20:42.107Z,94719.72
2022-09-29T00:23:10.081Z,94695.03
2022-09-29T00:25:40.856Z,94709.34
2022-09-29T00:28:10.195Z,94707.75
2022-09-29T00:30:38.223Z,94711.25
2022-09-29T00:33:06.249Z,94713.97
2022-09-29T00:35:34.191Z,94708.03
2022-09-29T00:38:02.192Z,94708.03
2022-09-29T00:40:30.175Z,94704.03
2022-09-29T00:42:58.157Z,94699.56
2022-09-29T00:45:27.871Z,94702.91
2022-09-29T00:48:04.614Z,94696.22
2022-09-29T00:50:40.673Z,94695.69
2022-09-29T00:53:13.290Z,94692.94
2022-09-29T00:55:45.081Z,94697.38
2022-09-29T00:58:19.857Z,94701.41
2022-09-29T01:00:49.860Z,94694.38
2022-09-29T01:03:21.884Z,94699.94
2022-09-29T01:05:52.652Z,94683.63
2022-09-29T01:08:24.673Z,94681.06
2022-09-29T01:10:53.585Z,94683.06
2022-09-29T01:13:22.353Z,94694.38
2022-09-29T01:15:52.331Z,94689.34
2022-09-29T01:18:20.482Z,94697.03
2022-09-29T01:20:54.159Z,94693.28
2022-09-29T01:24:01.730Z,94677.38
2022-09-29T01:27:03.160Z,94700.59
2022-09-29T01:30:09.552Z,94699.38
2022-09-29T01:33:02.526Z,94664.16
2022-09-29T01:35:36.389Z,94687.31
2022-09-29T01:38:13.380Z,94693.50
2022-09-29T01:40:49.758Z,94693.44
2022-09-29T01:43:20.094Z,94698.25
2022-09-29T01:45:51.550Z,94698.09
2022-09-29T01:48:26.142Z,94693.00
2022-09-29T01:50:56.991Z,94685.78
2022-09-29T01:53:29.536Z,94687.75
2022-09-29T01:56:02.006Z,94694.31
2022-09-29T01:58:34.802Z,94692.88
2022-09-29T02:01:07.171Z,94676.94
2022-09-29T02:03:39.156Z,94688.03
2022-09-29T02:06:11.123Z,94690.06
2022-09-29T02:08:41.842Z,94696.16
2022-09-29T02:11:12.427Z,94692.94
2022-09-29T02:13:43.131Z,94689.56
2022-09-29T02:16:13.481Z,94703.75
2022-09-29T02:18:46.045Z,94700.22
2022-09-29T02:21:14.061Z,94705.03
2022-09-29T02:23:42.070Z,94700.22
2022-09-29T02:26:10.926Z,94705.69
2022-09-29T02:28:39.126Z,94695.19
2022-09-29T02:31:07.796Z,94695.03
2022-09-29T02:33:35.808Z,94700.75
2022-09-29T02:36:15.631Z,94701.81
2022-09-29T02:38:46.654Z,94698.13
2022-09-29T02:41:26.469Z,94687.91
2022-09-29T02:44:12.032Z,94694.16
2022-09-29T02:46:46.675Z,94700.22
2022-09-29T02:49:27.795Z,94684.91
2022-09-29T02:51:59.319Z,94689.56
2022-09-29T02:54:36.477Z,94692.00
2022-09-29T02:57:12.985Z,94683.38
2022-09-29T02:59:47.100Z,94687.97
2022-09-29T03:02:16.797Z,94686.06
2022-09-29T03:04:44.749Z,94696.28
2022-09-29T03:07:14.075Z,94693.03
2022-09-29T03:09:42.091Z,94689.81
2022-09-29T03:12:10.065Z,94700.31
2022-09-29T03:14:38.047Z,94695.72
2022-09-29T03:17:06.020Z,94692.25
2022-09-29T03:19:34.004Z,94690.47
2022-09-29T03:22:01.954Z,94688.72
2022-09-29T03:24:32.996Z,94690.63
2022-09-29T03:27:00.977Z,94691.16
2022-09-29T03:29:29.032Z,94697.09
2022-09-29T03:31:57.047Z,94689.81
2022-09-29T03:34:25.018Z,94679.09
2022-09-29T03:36:52.945Z,94681.78
2022-09-29T03:39:21.108Z,94682.59
2022-09-29T03:41:50.631Z,94683.53
2022-09-29T03:44:18.569Z,94680.88
2022-09-29T03:46:47.287Z,94697.16
2022-09-29T03:49:16.241Z,94695.22
2022-09-29T03:51:44.410Z,94692.66
2022-09-29T03:54:12.606Z,94688.03
2022-09-29T03:56:40.837Z,94686.81
2022-09-29T03:59:12.304Z,94693.38
2022-09-29T04:01:41.110Z,94689.88
2022-09-29T04:04:10.644Z,94677.91
2022-09-29T04:06:38.609Z,94689.88
2022-09-29T04:09:06.601Z,94692.06
2022-09-29T04:11:34.599Z,94688.84
2022-09-29T04:14:02.613Z,94693.94
2022-09-29T04:16:32.163Z,94690.72
2022-09-29T04:19:00.113Z,94687.41
2022-09-29T04:21:28.111Z,94688.03
2022-09-29T04:23:56.124Z,94682.13
2022-09-29T04:26:24.109Z,94694.75
2022-09-29T04:28:54.672Z,94683.28
2022-09-29T04:31:22.743Z,94698.09
2022-09-29T04:33:52.224Z,94691.94
2022-09-29T04:36:20.172Z,94696.09
2022-09-29T04:38:48.968Z,94696.38
2022-09-29T04:41:17.186Z,94706.31
2022-09-29T04:43:45.288Z,94700.13
2022-09-29T04:46:13.454Z,94696.59
2022-09-29T04:48:41.413Z,94691.34
2022-09-29T04:51:11.118Z,94702.38
2022-09-29T04:53:39.184Z,94709.13
2022-09-29T04:56:08.484Z,94705.38
2022-09-29T04:58:36.769Z,94714.06
2022-09-29T05:01:08.944Z,94719.97
2022-09-29T05:03:37.075Z,94717.16
2022-09-29T05:06:05.471Z,94718.75
2022-09-29T05:08:35.193Z,94716.03
2022-09-29T05:11:05.675Z,94728.16
2022-09-29T05:13:33.762Z,94715.75
2022-09-29T05:16:03.169Z,94715.63
2022-09-29T05:18:31.635Z,94711.16
2022-09-29T05:21:26.926Z,94721.69
2022-09-29T05:23:53.443Z,94719.56
2022-09-29T05:26:21.376Z,94710.41
2022-09-29T05:28:49.378Z,94720.22
2022-09-29T05:31:18.001Z,94719.25
2022-09-29T05:33:46.136Z,94723.84
2022-09-29T05:36:14.405Z,94725.22
2022-09-29T05:38:42.359Z,94726.63
2022-09-29T05:41:13.257Z,94736.94
2022-09-29T05:43:41.730Z,94735.72
2022-09-29T05:46:11.266Z,94734.66
2022-09-29T05:48:39.352Z,94734.22
2022-09-29T05:51:12.712Z,94725.44
2022-09-29T05:53:40.743Z,94713.63
2022-09-29T05:56:09.320Z,94722.44
2022-09-29T05:58:39.415Z,94717.84
2022-09-29T06:01:08.070Z,94716.59
2022-09-29T06:03:37.109Z,94707.53
2022-09-29T06:06:07.636Z,94725.13
2022-09-29T06:08:36.043Z,94716.78
2022-09-29T06:11:06.174Z,94720.00
2022-09-29T06:13:34.444Z,94725.47
2022-09-29T06:16:03.921Z,94721.13
2022-09-29T06:18:32.474Z,94722.84
2022-09-29T06:21:04.452Z,94735.19
2022-09-29T06:23:32.540Z,94726.38
2022-09-29T06:26:02.071Z,94733.44
2022-09-29T06:28:30.283Z,94727.13
2022-09-29T06:31:00.655Z,94728.72
2022-09-29T06:33:30.595Z,94725.94
2022-09-29T06:36:16.560Z,94731.44
2022-09-29T06:38:45.355Z,94726.31
2022-09-29T06:41:13.297Z,94722.72
2022-09-29T06:43:41.218Z,94728.50
2022-09-29T06:46:09.335Z,94724.41
2022-09-29T06:48:38.715Z,94724.13
2022-09-29T06:51:10.361Z,94727.63
2022-09-29T06:53:39.312Z,94708.78
2022-09-29T06:56:09.042Z,94732.88
2022-09-29T06:58:37.364Z,94738.09
2022-09-29T07:01:06.826Z,94730.16
2022-09-29T07:03:36.204Z,94701.78
2022-09-29T07:06:19.329Z,94715.28
2022-09-29T07:08:47.549Z,94730.22
2022-09-29T07:11:16.657Z,94731.44
2022-09-29T07:13:44.629Z,94738.31
2022-09-29T07:16:14.036Z,94739.53
2022-09-29T07:18:43.275Z,94740.00
2022-09-29T07:21:16.766Z,94722.84
2022-09-29T07:23:45.263Z,94742.38
2022-09-29T07:26:13.986Z,94746.97
2022-09-29T07:28:41.984Z,94753.75
2022-09-29T07:31:15.322Z,94749.75
2022-09-29T07:33:44.113Z,94753.59
2022-09-29T07:36:14.195Z,94754.41
2022-09-29T07:38:42.384Z,94755.72
2022-09-29T07:41:12.169Z,94743.97
2022-09-29T07:43:40.875Z,94759.88
2022-09-29T07:46:09.579Z,94756.81
2022-09-29T07:48:38.743Z,94743.19
2022-09-29T07:51:08.716Z,94726.97
2022-09-29T07:53:38.513Z,94742.84
2022-09-29T07:56:07.956Z,94751.22
2022-09-29T07:58:37.538Z,94748.47
2022-09-29T08:01:07.634Z,94748.16
2022-09-29T08:03:36.414Z,94748.81
2022-09-29T08:06:05.123Z,94763.56
2022-09-29T08:08:33.322Z,94754.09
2022-09-29T08:11:07.541Z,94745.75
2022-09-29T08:13:37.758Z,94750.81
2022-09-29T08:16:07.361Z,94740.47
2022-09-29T08:18:36.243Z,94744.59
2022-09-29T08:21:04.870Z,94746.41
2022-09-29T08:23:35.907Z,94751.47
2022-09-29T08:26:07.000Z,94752.13
2022-09-29T08:28:37.232Z,94746.34
2022-09-29T08:31:05.454Z,94750.44
2022-09-29T08:33:34.190Z,94745.78
2022-09-29T08:36:03.810Z,94760.44
2022-09-29T08:38:33.094Z,94761.31
2022-09-29T08:41:05.033Z,94739.94
2022-09-29T08:43:38.415Z,94749.22
2022-09-29T08:46:09.026Z,94737.22
2022-09-29T08:48:51.641Z,94765.59
2022-09-29T08:51:38.275Z,94768.19
2022-09-29T08:54:10.831Z,94769.84
2022-09-29T08:56:39.254Z,94772.47
2022-09-29T08:59:09.884Z,94766.41
2022-09-29T09:01:48.712Z,94770.22
2022-09-29T09:04:33.541Z,94755.84
2022-09-29T09:07:08.900Z,94751.41
2022-09-29T09:09:51.686Z,94739.53
2022-09-29T09:12:38.836Z,94756.44
2022-09-29T09:15:30.207Z,94760.03
2022-09-29T09:18:12.142Z,94774.47
2022-09-29T09:20:54.612Z,94767.97
2022-09-29T09:23:24.509Z,94766.84
2022-09-29T09:25:57.103Z,94757.19
2022-09-29T09:28:28.530Z,94762.91
2022-09-29T09:31:00.861Z,94755.03
2022-09-29T09:33:33.065Z,94760.94
2022-09-29T09:36:04.824Z,94759.28
2022-09-29T09:38:45.698Z,94762.91
2022-09-29T09:41:17.350Z,94756.84
2022-09-29T09:43:47.476Z,94765.50
2022-09-29T09:46:21.728Z,94758.31
2022-09-29T09:48:57.406Z,94761.69
2022-09-29T09:51:33.767Z,94753.00
2022-09-29T09:54:06.329Z,94753.13
2022-09-29T09:56:48.191Z,94723.81
2022-09-29T09:59:27.712Z,94743.66
2022-09-29T10:01:57.168Z,94741.50
2022-09-29T10:04:26.334Z,94729.47
2022-09-29T10:06:56.281Z,94733.81
2022-09-29T10:09:24.795Z,94732.25
2022-09-29T10:11:53.227Z,94740.13
2022-09-29T10:14:25.997Z,94732.38
2022-09-29T10:16:58.249Z,94729.72
2022-09-29T10:19:56.713Z,94721.81
2022-09-29T10:22:24.955Z,94720.50
2022-09-29T10:24:56.856Z,94719.84
2022-09-29T10:27:26.897Z,94716.59
2022-09-29T10:29:57.015Z,94723.97
2022-09-29T10:32:36.686Z,94718.41
2022-09-29T10:35:11.557Z,94729.47
2022-09-29T10:37:40.904Z,94730.25
2022-09-29T10:40:20.887Z,94728.63
2022-09-29T10:42:51.267Z,94728.19
2022-09-29T10:45:20.217Z,94726.16
2022-09-29T10:47:52.666Z,94728.22
2022-09-29T10:50:23.494Z,94733.56
2022-09-29T10:52:54.028Z,94728.97
2022-09-29T10:55:23.517Z,94727.69
2022-09-29T10:57:52.268Z,94726.63
2022-09-29T11:00:31.562Z,94718.09
2022-09-29T11:03:15.778Z,94722.06
2022-09-29T11:05:53.571Z,94731.94
2022-09-29T11:08:27.816Z,94730.84
2022-09-29T11:11:06.396Z,94738.09
2022-09-29T11:13:38.376Z,94728.59
2022-09-29T11:16:13.969Z,94722.72
2022-09-29T11:18:44.878Z,94734.28
2022-09-29T11:21:37.147Z,94731.22
2022-09-29T11:24:08.315Z,94721.94
2022-09-29T11:26:43.836Z,94724.41
2022-09-29T11:29:22.259Z,94739.78
2022-09-29T11:32:13.815Z,94736.06
2022-09-29T11:35:11.495Z,94749.28
2022-09-29T11:38:00.713Z,94744.38
2022-09-29T11:40:32.380Z,94736.72
2022-09-29T11:43:09.033Z,94731.56
2022-09-29T11:45:42.314Z,94723.72
2022-09-29T11:48:35.479Z,94719.44
2022-09-29T11:51:10.317Z,94720.53
2022-09-29T11:53:49.697Z,94721.41
2022-09-29T11:56:29.176Z,94710.94
2022-09-29T11:59:06.970Z,94707.56
2022-09-29T12:01:48.077Z,94710.84
2022-09-29T12:04:32.109Z,94714.97
2022-09-29T12:07:07.844Z,94710.44
2022-09-29T12:09:54.858Z,94708.34
2022-09-29T12:12:26.439Z,94693.75
2022-09-29T12:15:26.744Z,94706.53
2022-09-29T12:17:57.811Z,94697.56
2022-09-29T12:20:27.415Z,94700.75
2022-09-29T12:23:01.061Z,94698.72
2022-09-29T12:25:31.916Z,94701.72
2022-09-29T12:28:02.326Z,94698.69
2022-09-29T12:30:31.865Z,94703.47
2022-09-29T12:33:02.706Z,94696.75
2022-09-29T12:35:36.039Z,94697.53
2022-09-29T12:38:15.559Z,94698.34
2022-09-29T12:40:47.162Z,94700.69
2022-09-29T12:43:19.114Z,94700.28
2022-09-29T12:45:53.804Z,94689.44
2022-09-29T12:48:35.682Z,94685.97
2022-09-29T12:51:05.548Z,94693.94
2022-09-29T12:53:38.505Z,94691.59
2022-09-29T12:56:10.932Z,94688.38
2022-09-29T12:58:43.911Z,94657.66
2022-09-29T13:01:25.316Z,94690.53
2022-09-29T13:04:16.885Z,94696.69
2022-09-29T13:07:08.059Z,94696.13
2022-09-29T13:10:15.537Z,94708.53
2022-09-29T13:13:12.297Z,94710.72
2022-09-29T13:15:50.109Z,94732.59
2022-09-29T13:18:29.413Z,94727.56
2022-09-29T13:21:06.870Z,94744.13
2022-09-29T13:23:49.286Z,94738.56
2022-09-29T13:26:49.804Z,94747.44
2022-09-29T13:29:20.350Z,94758.75
2022-09-29T13:31:49.535Z,94757.75
2022-09-29T13:34:27.236Z,94760.91
2022-09-29T13:36:55.443Z,94752.19
2022-09-29T13:39:26.955Z,94737.22
2022-09-29T13:41:56.920Z,94747.19
2022-09-29T13:44:27.787Z,94736.59
2022-09-29T13:46:57.224Z,94730.53
2022-09-29T13:49:31.758Z,94733.81
2022-09-29T13:52:01.860Z,94733.66
2022-09-29T13:54:39.387Z,94718.03
2022-09-29T13:57:27.688Z,94708.19
2022-09-29T14:00:22.730Z,94700.88
2022-09-29T14:03:03.032Z,94708.22
2022-09-29T14:05:55.570Z,94708.31
2022-09-29T14:08:28.576Z,94718.94
2022-09-29T14:11:04.875Z,94733.53
2022-09-29T14:13:42.669Z,94736.59
2022-09-29T14:16:19.596Z,94743.59
2022-09-29T14:18:52.161Z,94746.38
2022-09-29T14:21:48.425Z,94745.88
2022-09-29T14:24:49.616Z,94748.94
2022-09-29T14:27:33.220Z,94749.13
2022-09-29T14:30:17.894Z,94758.31
2022-09-29T14:32:52.828Z,94768.00
2022-09-29T14:35:26.388Z,94763.72
2022-09-29T14:38:01.641Z,94775.84
2022-09-29T14:40:29.971Z,94776.53
2022-09-29T14:43:13.298Z,94768.53
2022-09-29T14:46:32.782Z,94772.03
2022-09-29T14:49:43.418Z,94782.94
2022-09-29T14:52:17.313Z,94790.13
2022-09-29T14:54:52.324Z,94782.56
2022-09-29T14:57:34.940Z,94788.31
2022-09-29T15:00:08.107Z,94790.97
2022-09-29T15:02:38.286Z,94787.84
2022-09-29T15:05:30.968Z,94793.38
2022-09-29T15:08:01.187Z,94792.72
2022-09-29T15:10:32.751Z,94788.88
2022-09-29T15:13:28.346Z,94789.59
2022-09-29T15:16:01.065Z,94804.41
2022-09-29T15:18:57.503Z,94791.78
2022-09-29T15:21:34.409Z,94801.63
2022-09-29T15:24:14.582Z,94799.25
2022-09-29T15:26:44.792Z,94798.19
2022-09-29T15:29:17.836Z,94804.47
2022-09-29T15:31:48.169Z,94809.31
2022-09-29T15:34:20.528Z,94800.31
2022-09-29T15:36:51.215Z,94809.50
2022-09-29T15:39:45.222Z,94804.34
2022-09-29T15:42:16.634Z,94805.16
2022-09-29T15:44:55.389Z,94801.75
2022-09-29T15:47:27.750Z,94806.56
2022-09-29T15:49:57.338Z,94802.09
2022-09-29T15:52:25.855Z,94800.13
2022-09-29T15:54:59.007Z,94792.69
2022-09-29T15:57:50.358Z,94788.84
2022-09-29T16:00:45.936Z,94789.16
2022-09-29T16:03:18.562Z,94791.47
2022-09-29T16:05:58.859Z,94777.59
2022-09-29T16:08:28.853Z,94765.03
2022-09-29T16:10:58.910Z,94771.16
2022-09-29T16:13:28.866Z,94763.53
2022-09-29T16:15:59.098Z,94769.00
2022-09-29T16:18:29.403Z,94772.28
2022-09-29T16:21:00.293Z,94769.84
2022-09-29T16:23:30.475Z,94771.66
2022-09-29T16:26:14.380Z,94772.38
2022-09-29T16:29:03.781Z,94769.03
2022-09-29T16:31:33.506Z,94772.78
2022-09-29T16:34:02.423Z,94775.88
2022-09-29T16:36:33.884Z,94779.94
2022-09-29T16:39:02.842Z,94791.03
2022-09-29T16:41:35.487Z,94798.13
2022-09-29T16:44:08.351Z,94787.06
2022-09-29T16:46:43.776Z,94801.50
2022-09-29T16:49:20.979Z,94807.63
2022-09-29T16:51:51.608Z,94805.53
2022-09-29T16:54:22.778Z,94810.03
2022-09-29T16:56:52.860Z,94814.22
2022-09-29T16:59:21.131Z,94810.38
2022-09-29T17:01:49.768Z,94803.00
2022-09-29T17:04:18.574Z,94807.50
2022-09-29T17:06:48.600Z,94799.47
2022-09-29T17:09:21.924Z,94794.50
2022-09-29T17:11:50.210Z,94804.47
2022-09-29T17:14:22.084Z,94804.00
2022-09-29T17:16:51.636Z,94821.81
2022-09-29T17:19:22.349Z,94816.19
2022-09-29T17:21:50.623Z,94825.06
2022-09-29T17:24:20.304Z,94838.53
2022-09-29T17:27:06.342Z,94841.56
2022-09-29T17:29:34.908Z,94839.16
2022-09-29T17:32:03.886Z,94842.38
2022-09-29T17:34:32.855Z,94841.41
2022-09-29T17:37:02.104Z,94853.47
2022-09-29T17:39:32.365Z,94854.41
2022-09-29T17:42:00.693Z,94848.81
2022-09-29T17:44:29.419Z,94844.31
2022-09-29T17:47:16.951Z,94845.94
2022-09-29T17:49:50.874Z,94839.81
2022-09-29T17:52:19.969Z,94847.53
2022-09-29T17:54:49.798Z,94852.66
2022-09-29T17:57:21.802Z,94848.66
2022-09-29T17:59:50.106Z,94848.50
2022-09-29T18:02:18.820Z,94847.69
2022-09-29T18:04:49.433Z,94847.06
2022-09-29T18:07:17.558Z,94824.22
2022-09-29T18:09:47.252Z,94843.81
2022-09-29T18:12:16.904Z,94838.84
2022-09-29T18:14:44.935Z,94838.38
2022-09-29T18:17:12.999Z,94849.25
2022-09-29T18:19:41.116Z,94872.38
2022-09-29T18:22:09.307Z,94859.09
2022-09-29T18:24:37.459Z,94857.47
2022-09-29T18:27:05.765Z,94852.81
2022-09-29T18:29:36.217Z,94857.31
2022-09-29T18:32:05.136Z,94864.53
2022-09-29T18:34:35.044Z,94848.31
2022-09-29T18:37:03.208Z,94855.38
2022-09-29T18:39:31.840Z,94844.59
2022-09-29T18:42:00.146Z,94870.66
2022-09-29T18:44:33.451Z,94872.41
2022-09-29T18:47:02.963Z,94880.28
2022-09-29T18:49:31.006Z,94888.28
2022-09-29T18:51:59.727Z,94886.66
2022-09-29T18:54:27.852Z,94886.34
2022-09-29T18:56:55.965Z,94900.81
2022-09-29T18:59:24.094Z,94905.78
2022-09-29T19:01:52.369Z,94915.25
2022-09-29T19:04:21.926Z,94909.78
2022-09-29T19:06:50.051Z,94914.00
2022-09-29T19:09:18.332Z,94918.16
2022-09-29T19:11:50.308Z,94918.16
2022-09-29T19:14:18.972Z,94925.22
2022-09-29T19:16:48.231Z,94934.22
2022-09-29T19:19:16.569Z,94921.22
2022-09-29T19:21:46.047Z,94915.59
2022-09-29T19:24:14.136Z,94927.81
2022-09-29T19:26:42.258Z,94921.03
2022-09-29T19:29:10.353Z,94924.59
2022-09-29T19:31:38.593Z,94921.38
2022-09-29T19:34:06.798Z,94920.56
2022-09-29T19:36:36.265Z,94931.81
2022-09-29T19:39:08.012Z,94934.06
2022-09-29T19:41:36.158Z,94929.25
2022-09-29T19:44:04.307Z,94935.19
2022-09-29T19:46:32.546Z,94931.31
2022-09-29T19:49:00.704Z,94935.19
2022-09-29T19:51:47.609Z,94933.56
2022-09-29T19:54:19.302Z,94933.88
2022-09-29T19:56:49.634Z,94930.53
2022-09-29T19:59:19.911Z,94923.63
2022-09-29T20:01:50.245Z,94902.72
2022-09-29T20:04:19.380Z,94928.75
2022-09-29T20:06:47.867Z,94936.94
2022-09-29T20:09:18.074Z,94938.53
2022-09-29T20:11:47.210Z,94944.50
2022-09-29T20:14:20.760Z,94941.25
2022-09-29T20:16:49.052Z,94941.59
2022-09-29T20:19:19.856Z,94948.16
2022-09-29T20:21:49.604Z,94923.91
2022-09-29T20:24:20.846Z,94955.69
2022-09-29T20:26:49.739Z,94949.63
2022-09-29T20:29:20.033Z,94942.38
2022-09-29T20:31:48.483Z,94954.59
2022-09-29T20:34:18.556Z,94953.63
2022-09-29T20:36:50.886Z,94949.47
2022-09-29T20:39:25.401Z,94961.34
2022-09-29T20:41:55.056Z,94952.84
2022-09-29T20:44:25.834Z,94957.34
2022-09-29T20:46:54.690Z,94967.75
2022-09-29T20:49:22.939Z,94963.09
2022-09-29T20:51:51.738Z,94963.41
2022-09-29T20:54:20.411Z,94965.16
2022-09-29T20:56:50.509Z,94964.53
2022-09-29T20:59:23.423Z,94971.75
2022-09-29T21:01:53.461Z,94977.97
2022-09-29T21:04:22.630Z,94979.56
2022-09-29T21:06:52.210Z,94976.88
2022-09-29T21:09:22.353Z,94981.53
2022-09-29T21:11:53.677Z,94976.38
2022-09-29T21:14:24.313Z,94972.84
2022-09-29T21:16:53.368Z,94969.97
2022-09-29T21:19:24.066Z,94973.34
2022-09-29T21:21:55.478Z,94967.38
2022-09-29T21:24:23.764Z,94962.41
2022-09-29T21:26:53.360Z,94966.13
2022-09-29T21:29:21.466Z,94964.34
2022-09-29T21:31:50.672Z,94958.53
2022-09-29T21:34:19.294Z,94973.16
2022-09-29T21:36:47.422Z,94973.97
2022-09-29T21:39:16.987Z,94986.00
2022-09-29T21:41:46.064Z,94985.03
2022-09-29T21:44:16.947Z,94992.91
2022-09-29T21:46:46.108Z,94994.81
2022-09-29T21:49:16.435Z,94993.88
2022-09-29T21:51:46.345Z,94995.94
2022-09-29T21:54:15.955Z,94991.41
2022-09-29T21:56:45.549Z,94979.53
2022-09-29T21:59:17.296Z,94981.44
2022-09-29T22:01:46.212Z,94985.59
2022-09-29T22:04:15.419Z,94979.03
2022-09-29T22:06:44.977Z,94978.06
2022-09-29T22:09:17.066Z,94988.13
2022-09-29T22:11:45.393Z,94982.16
2022-09-29T22:14:16.127Z,94990.34
2022-09-29T22:16:44.368Z,94974.94
2022-09-29T22:19:28.472Z,94981.84
2022-09-29T22:21:56.794Z,94978.63
2022-09-29T22:24:26.725Z,94975.13
2022-09-29T22:26:55.267Z,94986.03
2022-09-29T22:29:24.938Z,94987.78
2022-09-29T22:31:53.188Z,94998.22
2022-09-29T22:34:21.291Z,94993.38
2022-09-29T22:36:49.476Z,94995.31
2022-09-29T22:39:17.757Z,94997.06
2022-09-29T22:41:45.799Z,94986.78
2022-09-29T22:44:14.147Z,94992.09
2022-09-29T22:46:43.797Z,94997.53
2022-09-29T22:49:12.147Z,95004.41
2022-09-29T22:51:40.312Z,94996.06
2022-09-29T22:54:08.435Z,94999.44
2022-09-29T22:56:36.457Z,94999.75
2022-09-29T22:59:05.581Z,95005.66
2022-09-29T23:01:34.921Z,94990.69
2022-09-29T23:04:05.089Z,95017.72
2022-09-29T23:06:33.477Z,95018.50
2022-09-29T23:09:01.719Z,95015.91
2022-09-29T23:11:31.320Z,95016.88
2022-09-29T23:14:00.330Z,95022.97
2022-09-29T23:16:28.558Z,95018.44
2022-09-29T23:18:58.766Z,95016.84
2022-09-29T23:21:28.380Z,95010.72
2022-09-29T23:23:58.244Z,95013.91
2022-09-29T23:26:26.833Z,95014.72
2022-09-29T23:28:55.803Z,95013.13
2022-09-29T23:31:26.679Z,95022.56
2022-09-29T23:33:56.003Z,95011.81
2022-09-29T23:36:24.610Z,94995.22
2022-09-29T23:39:11.415Z,95011.44
2022-09-29T23:41:41.416Z,95010.94
2022-09-29T23:44:09.793Z,95013.81
2022-09-29T23:46:39.975Z,95023.06
2022-09-29T23:49:10.176Z,95021.47
2022-09-29T23:51:39.279Z,95007.47
2022-09-29T23:54:09.863Z,95017.13
2022-09-29T23:56:38.218Z,95017.13
2022-09-29T23:59:07.286Z,94999.28
